METAR Data

Data at: 0909 UTC 23 Jul 2019

METAR for:KJFK (New York/Kennedy Int, NY, US)
Text:KJFK 230851Z 04004KT 10SM SCT008 SCT034 OVC130 23/23 A2970 RMK AO2 RAE48 SLP056 P0000 60000 T02330233 58021 $
Temperature: 23.3°C ( 74°F)
Dewpoint: 23.3°C ( 74°F) [RH = 100%]
Pressure (altimeter):29.70 inches Hg (1005.8 mb) [Sea level pressure: 1005.6 mb]
Winds:from the NE (40 degrees) at 5 MPH (4 knots; 2.1 m/s)
Visibility:10 or more sm (16+ km)
Ceiling:13000 feet AGL
Clouds: scattered clouds at 800 feet AGL, scattered clouds at 3400 feet AGL, overcast cloud deck at 13000 feet AGL
QC Flag:SOME DATA ABOVE MAY BE INACCURATE!!!"$" is an indication the sensor requires maintenance.